sensor_id;sensor_type;location;lat;lon;timestamp;temperature;humidity
9975;DHT22;5028;50.974;4.968;2022-11-02T00:01:38;13.60;99.90
9975;DHT22;5028;50.974;4.968;2022-11-02T00:04:08;13.50;99.90
9975;DHT22;5028;50.974;4.968;2022-11-02T00:06:43;13.50;99.90
9975;DHT22;5028;50.974;4.968;2022-11-02T00:09:14;13.50;99.90
9975;DHT22;5028;50.974;4.968;2022-11-02T00:11:49;13.50;99.90
9975;DHT22;5028;50.974;4.968;2022-11-02T00:14:19;13.50;99.90
9975;DHT22;5028;50.974;4.968;2022-11-02T00:16:54;13.40;99.90
9975;DHT22;5028;50.974;4.968;2022-11-02T00:19:23;13.50;99.90
9975;DHT22;5028;50.974;4.968;2022-11-02T00:21:57;13.50;99.90
9975;DHT22;5028;50.974;4.968;2022-11-02T00:24:27;13.50;99.90
9975;DHT22;5028;50.974;4.968;2022-11-02T00:27:04;13.50;99.90
9975;DHT22;5028;50.974;4.968;2022-11-02T00:29:34;13.50;99.90
9975;DHT22;5028;50.974;4.968;2022-11-02T00:32:09;13.50;99.90
9975;DHT22;5028;50.974;4.968;2022-11-02T00:34:37;13.60;99.90
9975;DHT22;5028;50.974;4.968;2022-11-02T00:37:12;13.60;99.90
9975;DHT22;5028;50.974;4.968;2022-11-02T00:39:41;13.60;99.90
9975;DHT22;5028;50.974;4.968;2022-11-02T00:42:15;13.60;99.90
9975;DHT22;5028;50.974;4.968;2022-11-02T00:44:45;13.50;99.90
9975;DHT22;5028;50.974;4.968;2022-11-02T00:47:20;13.50;99.90
9975;DHT22;5028;50.974;4.968;2022-11-02T00:49:49;13.40;99.90
9975;DHT22;5028;50.974;4.968;2022-11-02T00:52:23;13.50;99.90
9975;DHT22;5028;50.974;4.968;2022-11-02T00:54:58;13.40;99.90
9975;DHT22;5028;50.974;4.968;2022-11-02T00:57:33;13.40;99.90
9975;DHT22;5028;50.974;4.968;2022-11-02T01:00:04;13.50;99.90
9975;DHT22;5028;50.974;4.968;2022-11-02T01:02:39;13.40;99.90
9975;DHT22;5028;50.974;4.968;2022-11-02T01:05:09;13.50;99.90
9975;DHT22;5028;50.974;4.968;2022-11-02T01:07:45;13.40;99.90
9975;DHT22;5028;50.974;4.968;2022-11-02T01:10:13;13.40;99.90
9975;DHT22;5028;50.974;4.968;2022-11-02T01:12:48;13.40;99.90
9975;DHT22;5028;50.974;4.968;2022-11-02T01:15:18;13.40;99.90
9975;DHT22;5028;50.974;4.968;2022-11-02T01:17:53;13.40;99.90
9975;DHT22;5028;50.974;4.968;2022-11-02T01:20:22;13.50;99.90
9975;DHT22;5028;50.974;4.968;2022-11-02T01:22:57;13.40;99.90
9975;DHT22;5028;50.974;4.968;2022-11-02T01:25:25;13.40;99.90
9975;DHT22;5028;50.974;4.968;2022-11-02T01:28:00;13.40;99.90
9975;DHT22;5028;50.974;4.968;2022-11-02T01:30:30;13.40;99.90
9975;DHT22;5028;50.974;4.968;2022-11-02T01:33:07;13.40;99.90
9975;DHT22;5028;50.974;4.968;2022-11-02T01:35:35;13.30;99.90
9975;DHT22;5028;50.974;4.968;2022-11-02T01:38:10;13.30;99.90
9975;DHT22;5028;50.974;4.968;2022-11-02T01:40:39;13.30;99.90
9975;DHT22;5028;50.974;4.968;2022-11-02T01:43:22;13.30;99.90
9975;DHT22;5028;50.974;4.968;2022-11-02T01:45:55;13.30;99.90
9975;DHT22;5028;50.974;4.968;2022-11-02T01:48:34;13.20;99.90
9975;DHT22;5028;50.974;4.968;2022-11-02T01:51:05;13.20;99.90
9975;DHT22;5028;50.974;4.968;2022-11-02T01:53:45;13.20;99.90
9975;DHT22;5028;50.974;4.968;2022-11-02T01:56:35;13.20;99.90
9975;DHT22;5028;50.974;4.968;2022-11-02T01:59:09;13.10;99.90
9975;DHT22;5028;50.974;4.968;2022-11-02T02:01:48;13.10;99.90
9975;DHT22;5028;50.974;4.968;2022-11-02T02:04:16;13.10;99.90
9975;DHT22;5028;50.974;4.968;2022-11-02T02:06:52;13.00;99.90
9975;DHT22;5028;50.974;4.968;2022-11-02T02:09:24;13.00;99.90
9975;DHT22;5028;50.974;4.968;2022-11-02T02:12:00;13.00;99.90
9975;DHT22;5028;50.974;4.968;2022-11-02T02:14:29;13.00;99.90
9975;DHT22;5028;50.974;4.968;2022-11-02T02:17:22;13.00;99.90
9975;DHT22;5028;50.974;4.968;2022-11-02T02:19:56;12.90;99.90
9975;DHT22;5028;50.974;4.968;2022-11-02T02:22:46;12.90;99.90
9975;DHT22;5028;50.974;4.968;2022-11-02T02:25:44;12.80;99.90
9975;DHT22;5028;50.974;4.968;2022-11-02T02:28:32;12.80;99.90
9975;DHT22;5028;50.974;4.968;2022-11-02T02:31:07;12.80;99.90
9975;DHT22;5028;50.974;4.968;2022-11-02T02:33:48;12.80;99.90
9975;DHT22;5028;50.974;4.968;2022-11-02T02:36:24;12.80;99.90
9975;DHT22;5028;50.974;4.968;2022-11-02T02:39:08;12.80;99.90
9975;DHT22;5028;50.974;4.968;2022-11-02T02:41:42;12.80;99.90
9975;DHT22;5028;50.974;4.968;2022-11-02T02:44:22;12.70;99.90
9975;DHT22;5028;50.974;4.968;2022-11-02T02:46:53;12.70;99.90
9975;DHT22;5028;50.974;4.968;2022-11-02T02:49:35;12.70;99.90
9975;DHT22;5028;50.974;4.968;2022-11-02T02:52:05;12.70;99.90
9975;DHT22;5028;50.974;4.968;2022-11-02T02:54:42;12.80;99.90
9975;DHT22;5028;50.974;4.968;2022-11-02T02:57:21;12.80;99.90
9975;DHT22;5028;50.974;4.968;2022-11-02T02:59:59;12.80;99.90
9975;DHT22;5028;50.974;4.968;2022-11-02T03:02:31;12.80;99.90
9975;DHT22;5028;50.974;4.968;2022-11-02T03:05:22;12.70;99.90
9975;DHT22;5028;50.974;4.968;2022-11-02T03:07:51;12.70;99.90
9975;DHT22;5028;50.974;4.968;2022-11-02T03:10:31;12.70;99.90
9975;DHT22;5028;50.974;4.968;2022-11-02T03:13:08;12.60;99.90
9975;DHT22;5028;50.974;4.968;2022-11-02T03:15:49;12.60;99.90
9975;DHT22;5028;50.974;4.968;2022-11-02T03:18:27;12.60;99.90
9975;DHT22;5028;50.974;4.968;2022-11-02T03:21:14;12.60;99.90
9975;DHT22;5028;50.974;4.968;2022-11-02T03:23:51;12.60;99.90
9975;DHT22;5028;50.974;4.968;2022-11-02T03:26:29;12.60;99.90
9975;DHT22;5028;50.974;4.968;2022-11-02T03:29:03;12.50;99.90
9975;DHT22;5028;50.974;4.968;2022-11-02T03:31:44;12.50;99.90
9975;DHT22;5028;50.974;4.968;2022-11-02T03:34:18;12.50;99.90
9975;DHT22;5028;50.974;4.968;2022-11-02T03:37:00;12.50;99.90
9975;DHT22;5028;50.974;4.968;2022-11-02T03:39:33;12.50;99.90
9975;DHT22;5028;50.974;4.968;2022-11-02T03:42:14;12.50;99.90
9975;DHT22;5028;50.974;4.968;2022-11-02T03:44:45;12.60;99.90
9975;DHT22;5028;50.974;4.968;2022-11-02T03:47:24;12.60;99.90
9975;DHT22;5028;50.974;4.968;2022-11-02T03:49:57;12.60;99.90
9975;DHT22;5028;50.974;4.968;2022-11-02T03:52:38;12.50;99.90
9975;DHT22;5028;50.974;4.968;2022-11-02T03:55:18;12.50;99.90
9975;DHT22;5028;50.974;4.968;2022-11-02T03:57:53;12.50;99.90
9975;DHT22;5028;50.974;4.968;2022-11-02T04:00:28;12.50;99.90
9975;DHT22;5028;50.974;4.968;2022-11-02T04:03:06;12.50;99.90
9975;DHT22;5028;50.974;4.968;2022-11-02T04:05:35;12.50;99.90
9975;DHT22;5028;50.974;4.968;2022-11-02T04:08:13;12.50;99.90
9975;DHT22;5028;50.974;4.968;2022-11-02T04:10:49;12.50;99.90
9975;DHT22;5028;50.974;4.968;2022-11-02T04:13:41;12.50;99.90
9975;DHT22;5028;50.974;4.968;2022-11-02T04:16:27;12.50;99.90
9975;DHT22;5028;50.974;4.968;2022-11-02T04:19:04;12.50;99.90
9975;DHT22;5028;50.974;4.968;2022-11-02T04:21:50;12.50;99.90
9975;DHT22;5028;50.974;4.968;2022-11-02T04:24:41;12.50;99.90
9975;DHT22;5028;50.974;4.968;2022-11-02T04:27:27;12.50;99.90
9975;DHT22;5028;50.974;4.968;2022-11-02T04:30:03;12.40;99.90
9975;DHT22;5028;50.974;4.968;2022-11-02T04:32:37;12.40;99.90
9975;DHT22;5028;50.974;4.968;2022-11-02T04:35:30;12.40;99.90
9975;DHT22;5028;50.974;4.968;2022-11-02T04:38:00;12.40;99.90
9975;DHT22;5028;50.974;4.968;2022-11-02T04:40:52;12.30;99.90
9975;DHT22;5028;50.974;4.968;2022-11-02T04:43:41;12.30;99.90
9975;DHT22;5028;50.974;4.968;2022-11-02T04:46:16;12.30;99.90
9975;DHT22;5028;50.974;4.968;2022-11-02T04:48:45;12.30;99.90
9975;DHT22;5028;50.974;4.968;2022-11-02T04:51:23;12.30;99.90
9975;DHT22;5028;50.974;4.968;2022-11-02T04:53:59;12.30;99.90
9975;DHT22;5028;50.974;4.968;2022-11-02T04:56:41;12.30;99.90
9975;DHT22;5028;50.974;4.968;2022-11-02T04:59:16;12.20;99.90
9975;DHT22;5028;50.974;4.968;2022-11-02T05:01:45;12.20;99.90
9975;DHT22;5028;50.974;4.968;2022-11-02T05:04:19;12.10;99.90
9975;DHT22;5028;50.974;4.968;2022-11-02T05:06:49;12.20;99.90
9975;DHT22;5028;50.974;4.968;2022-11-02T05:09:27;12.10;99.90
9975;DHT22;5028;50.974;4.968;2022-11-02T05:11:56;12.10;99.90
9975;DHT22;5028;50.974;4.968;2022-11-02T05:14:31;12.10;99.90
9975;DHT22;5028;50.974;4.968;2022-11-02T05:16:59;12.00;99.90
9975;DHT22;5028;50.974;4.968;2022-11-02T05:19:34;12.00;99.90
9975;DHT22;5028;50.974;4.968;2022-11-02T05:22:04;12.00;99.90
9975;DHT22;5028;50.974;4.968;2022-11-02T05:24:39;11.90;99.90
9975;DHT22;5028;50.974;4.968;2022-11-02T05:27:09;11.90;99.90
9975;DHT22;5028;50.974;4.968;2022-11-02T05:29:43;11.90;99.90
9975;DHT22;5028;50.974;4.968;2022-11-02T05:32:12;11.90;99.90
9975;DHT22;5028;50.974;4.968;2022-11-02T05:34:46;11.80;99.90
9975;DHT22;5028;50.974;4.968;2022-11-02T05:37:17;11.80;99.90
9975;DHT22;5028;50.974;4.968;2022-11-02T05:39:51;11.80;99.90
9975;DHT22;5028;50.974;4.968;2022-11-02T05:42:20;11.70;99.90
9975;DHT22;5028;50.974;4.968;2022-11-02T05:44:55;11.70;99.90
9975;DHT22;5028;50.974;4.968;2022-11-02T05:47:25;11.70;99.90
9975;DHT22;5028;50.974;4.968;2022-11-02T05:50:00;11.70;99.90
9975;DHT22;5028;50.974;4.968;2022-11-02T05:52:30;11.60;99.90
9975;DHT22;5028;50.974;4.968;2022-11-02T05:55:06;11.60;99.90
9975;DHT22;5028;50.974;4.968;2022-11-02T05:57:41;11.60;99.90
9975;DHT22;5028;50.974;4.968;2022-11-02T06:00:16;11.60;99.90
9975;DHT22;5028;50.974;4.968;2022-11-02T06:02:44;11.60;99.90
9975;DHT22;5028;50.974;4.968;2022-11-02T06:05:19;11.60;99.90
9975;DHT22;5028;50.974;4.968;2022-11-02T06:07:49;11.60;99.90
9975;DHT22;5028;50.974;4.968;2022-11-02T06:10:25;11.60;99.90
9975;DHT22;5028;50.974;4.968;2022-11-02T06:12:54;11.60;99.90
9975;DHT22;5028;50.974;4.968;2022-11-02T06:15:31;11.60;99.90
9975;DHT22;5028;50.974;4.968;2022-11-02T06:17:59;11.60;99.90
9975;DHT22;5028;50.974;4.968;2022-11-02T06:20:34;11.50;99.90
9975;DHT22;5028;50.974;4.968;2022-11-02T06:23:05;11.50;99.90
9975;DHT22;5028;50.974;4.968;2022-11-02T06:25:39;11.50;99.90
9975;DHT22;5028;50.974;4.968;2022-11-02T06:28:10;11.50;99.90
9975;DHT22;5028;50.974;4.968;2022-11-02T06:30:45;11.40;99.90
9975;DHT22;5028;50.974;4.968;2022-11-02T06:33:15;11.40;99.90
9975;DHT22;5028;50.974;4.968;2022-11-02T06:35:51;11.40;99.90
9975;DHT22;5028;50.974;4.968;2022-11-02T06:38:22;11.40;99.90
9975;DHT22;5028;50.974;4.968;2022-11-02T06:40:59;11.30;99.90
9975;DHT22;5028;50.974;4.968;2022-11-02T06:43:35;11.30;99.90
9975;DHT22;5028;50.974;4.968;2022-11-02T06:46:05;11.30;99.90
9975;DHT22;5028;50.974;4.968;2022-11-02T06:48:40;11.30;99.90
9975;DHT22;5028;50.974;4.968;2022-11-02T06:51:08;11.30;99.90
9975;DHT22;5028;50.974;4.968;2022-11-02T06:53:38;11.30;99.90
9975;DHT22;5028;50.974;4.968;2022-11-02T06:56:20;11.30;99.90
9975;DHT22;5028;50.974;4.968;2022-11-02T06:58:55;11.20;99.90
9975;DHT22;5028;50.974;4.968;2022-11-02T07:01:24;11.20;99.90
9975;DHT22;5028;50.974;4.968;2022-11-02T07:03:59;11.30;99.90
9975;DHT22;5028;50.974;4.968;2022-11-02T07:06:28;11.30;99.90
9975;DHT22;5028;50.974;4.968;2022-11-02T07:09:05;11.20;99.90
9975;DHT22;5028;50.974;4.968;2022-11-02T07:11:34;11.20;99.90
9975;DHT22;5028;50.974;4.968;2022-11-02T07:14:08;11.20;99.90
9975;DHT22;5028;50.974;4.968;2022-11-02T07:16:37;11.20;99.90
9975;DHT22;5028;50.974;4.968;2022-11-02T07:19:12;11.20;99.90
9975;DHT22;5028;50.974;4.968;2022-11-02T07:21:41;11.20;99.90
9975;DHT22;5028;50.974;4.968;2022-11-02T07:24:18;11.20;99.90
9975;DHT22;5028;50.974;4.968;2022-11-02T07:26:47;11.20;99.90
9975;DHT22;5028;50.974;4.968;2022-11-02T07:29:23;11.20;99.90
9975;DHT22;5028;50.974;4.968;2022-11-02T07:31:51;11.20;99.90
9975;DHT22;5028;50.974;4.968;2022-11-02T07:34:25;11.20;99.90
9975;DHT22;5028;50.974;4.968;2022-11-02T07:36:54;11.20;99.90
9975;DHT22;5028;50.974;4.968;2022-11-02T07:39:31;11.30;99.90
9975;DHT22;5028;50.974;4.968;2022-11-02T07:42:00;11.30;99.90
9975;DHT22;5028;50.974;4.968;2022-11-02T07:44:34;11.30;99.90
9975;DHT22;5028;50.974;4.968;2022-11-02T07:47:03;11.30;99.90
9975;DHT22;5028;50.974;4.968;2022-11-02T07:49:38;11.30;99.90
9975;DHT22;5028;50.974;4.968;2022-11-02T07:52:09;11.30;99.90
9975;DHT22;5028;50.974;4.968;2022-11-02T07:54:45;11.30;99.90
9975;DHT22;5028;50.974;4.968;2022-11-02T07:57:26;11.40;99.90
9975;DHT22;5028;50.974;4.968;2022-11-02T08:00:02;11.40;99.90
9975;DHT22;5028;50.974;4.968;2022-11-02T08:02:30;11.40;99.90
9975;DHT22;5028;50.974;4.968;2022-11-02T08:05:06;11.40;99.90
9975;DHT22;5028;50.974;4.968;2022-11-02T08:07:34;11.40;99.90
9975;DHT22;5028;50.974;4.968;2022-11-02T08:10:19;11.50;99.90
9975;DHT22;5028;50.974;4.968;2022-11-02T08:12:54;11.50;99.90
9975;DHT22;5028;50.974;4.968;2022-11-02T08:15:28;11.50;99.90
9975;DHT22;5028;50.974;4.968;2022-11-02T08:18:01;11.50;99.90
9975;DHT22;5028;50.974;4.968;2022-11-02T08:20:37;11.60;99.90
9975;DHT22;5028;50.974;4.968;2022-11-02T08:23:05;11.60;99.90
9975;DHT22;5028;50.974;4.968;2022-11-02T08:25:43;11.60;99.90
9975;DHT22;5028;50.974;4.968;2022-11-02T08:28:14;11.70;99.90
9975;DHT22;5028;50.974;4.968;2022-11-02T08:30:50;11.70;99.90
9975;DHT22;5028;50.974;4.968;2022-11-02T08:33:19;11.70;99.90
9975;DHT22;5028;50.974;4.968;2022-11-02T08:35:54;11.70;99.90
9975;DHT22;5028;50.974;4.968;2022-11-02T08:38:27;11.80;99.90
9975;DHT22;5028;50.974;4.968;2022-11-02T08:41:04;11.80;99.90
9975;DHT22;5028;50.974;4.968;2022-11-02T08:43:33;11.80;99.90
9975;DHT22;5028;50.974;4.968;2022-11-02T08:46:08;11.80;99.90
9975;DHT22;5028;50.974;4.968;2022-11-02T08:48:42;11.90;99.90
9975;DHT22;5028;50.974;4.968;2022-11-02T08:51:17;11.90;99.90
9975;DHT22;5028;50.974;4.968;2022-11-02T08:53:45;12.00;99.90
9975;DHT22;5028;50.974;4.968;2022-11-02T08:56:35;12.00;99.90
9975;DHT22;5028;50.974;4.968;2022-11-02T08:59:03;12.00;99.90
9975;DHT22;5028;50.974;4.968;2022-11-02T09:01:41;12.10;99.90
9975;DHT22;5028;50.974;4.968;2022-11-02T09:04:09;12.10;99.90
9975;DHT22;5028;50.974;4.968;2022-11-02T09:06:44;12.20;99.90
9975;DHT22;5028;50.974;4.968;2022-11-02T09:09:12;12.20;99.90
9975;DHT22;5028;50.974;4.968;2022-11-02T09:11:50;12.30;99.90
9975;DHT22;5028;50.974;4.968;2022-11-02T09:14:18;12.30;99.90
9975;DHT22;5028;50.974;4.968;2022-11-02T09:16:59;12.40;99.90
9975;DHT22;5028;50.974;4.968;2022-11-02T09:19:27;12.40;99.90
9975;DHT22;5028;50.974;4.968;2022-11-02T09:22:01;12.50;99.90
9975;DHT22;5028;50.974;4.968;2022-11-02T09:24:31;12.50;99.90
9975;DHT22;5028;50.974;4.968;2022-11-02T09:27:26;12.50;99.90
9975;DHT22;5028;50.974;4.968;2022-11-02T09:29:55;12.50;99.90
9975;DHT22;5028;50.974;4.968;2022-11-02T09:32:30;12.60;99.90
9975;DHT22;5028;50.974;4.968;2022-11-02T09:34:59;12.60;99.90
9975;DHT22;5028;50.974;4.968;2022-11-02T09:37:35;12.60;99.90
9975;DHT22;5028;50.974;4.968;2022-11-02T09:40:04;12.60;99.90
9975;DHT22;5028;50.974;4.968;2022-11-02T09:42:46;12.70;99.90
9975;DHT22;5028;50.974;4.968;2022-11-02T09:45:19;12.70;99.90
9975;DHT22;5028;50.974;4.968;2022-11-02T09:47:57;12.70;99.90
9975;DHT22;5028;50.974;4.968;2022-11-02T09:50:50;12.80;99.90
9975;DHT22;5028;50.974;4.968;2022-11-02T09:53:35;12.90;99.90
9975;DHT22;5028;50.974;4.968;2022-11-02T09:56:06;12.90;99.90
9975;DHT22;5028;50.974;4.968;2022-11-02T09:58:55;12.90;99.90
9975;DHT22;5028;50.974;4.968;2022-11-02T10:01:37;12.90;99.90
9975;DHT22;5028;50.974;4.968;2022-11-02T10:04:43;13.00;99.90
9975;DHT22;5028;50.974;4.968;2022-11-02T10:07:32;13.10;99.90
9975;DHT22;5028;50.974;4.968;2022-11-02T10:10:10;13.20;99.90
9975;DHT22;5028;50.974;4.968;2022-11-02T10:12:52;13.20;99.90
9975;DHT22;5028;50.974;4.968;2022-11-02T10:15:31;13.30;99.90
9975;DHT22;5028;50.974;4.968;2022-11-02T10:18:12;13.40;99.90
9975;DHT22;5028;50.974;4.968;2022-11-02T10:20:51;13.40;99.90
9975;DHT22;5028;50.974;4.968;2022-11-02T10:23:23;13.50;99.90
9975;DHT22;5028;50.974;4.968;2022-11-02T10:26:00;13.70;99.90
9975;DHT22;5028;50.974;4.968;2022-11-02T10:28:31;13.90;99.90
9975;DHT22;5028;50.974;4.968;2022-11-02T10:31:20;14.00;99.90
9975;DHT22;5028;50.974;4.968;2022-11-02T10:33:49;14.30;99.90
9975;DHT22;5028;50.974;4.968;2022-11-02T10:36:33;14.30;99.90
9975;DHT22;5028;50.974;4.968;2022-11-02T10:39:16;14.50;99.90
9975;DHT22;5028;50.974;4.968;2022-11-02T10:42:23;14.80;99.90
9975;DHT22;5028;50.974;4.968;2022-11-02T10:48:19;15.00;99.90
9975;DHT22;5028;50.974;4.968;2022-11-02T10:51:05;15.30;99.90
9975;DHT22;5028;50.974;4.968;2022-11-02T10:53:37;15.30;99.90
9975;DHT22;5028;50.974;4.968;2022-11-02T10:56:20;15.30;99.90
9975;DHT22;5028;50.974;4.968;2022-11-02T10:58:54;15.60;99.90
9975;DHT22;5028;50.974;4.968;2022-11-02T11:01:31;15.80;99.90
9975;DHT22;5028;50.974;4.968;2022-11-02T11:04:02;15.90;99.90
9975;DHT22;5028;50.974;4.968;2022-11-02T11:06:39;15.90;99.90
9975;DHT22;5028;50.974;4.968;2022-11-02T11:09:15;15.70;99.90
9975;DHT22;5028;50.974;4.968;2022-11-02T11:11:53;15.70;99.90
9975;DHT22;5028;50.974;4.968;2022-11-02T11:14:25;15.80;99.90
9975;DHT22;5028;50.974;4.968;2022-11-02T11:17:25;15.90;99.90
9975;DHT22;5028;50.974;4.968;2022-11-02T11:20:30;15.90;99.90
9975;DHT22;5028;50.974;4.968;2022-11-02T11:23:17;16.10;99.90
9975;DHT22;5028;50.974;4.968;2022-11-02T11:25:55;16.20;99.90
9975;DHT22;5028;50.974;4.968;2022-11-02T11:28:36;16.10;99.90
9975;DHT22;5028;50.974;4.968;2022-11-02T11:31:12;16.20;99.90
9975;DHT22;5028;50.974;4.968;2022-11-02T11:33:50;16.20;99.90
9975;DHT22;5028;50.974;4.968;2022-11-02T11:36:24;16.10;99.90
9975;DHT22;5028;50.974;4.968;2022-11-02T11:39:02;15.90;99.90
9975;DHT22;5028;50.974;4.968;2022-11-02T11:41:32;16.00;99.90
9975;DHT22;5028;50.974;4.968;2022-11-02T11:44:11;16.30;99.90
9975;DHT22;5028;50.974;4.968;2022-11-02T11:46:42;16.30;99.90
9975;DHT22;5028;50.974;4.968;2022-11-02T11:49:21;16.40;99.90
9975;DHT22;5028;50.974;4.968;2022-11-02T11:52:18;16.30;99.90
9975;DHT22;5028;50.974;4.968;2022-11-02T11:54:59;16.10;99.90
9975;DHT22;5028;50.974;4.968;2022-11-02T11:57:40;15.90;99.90
9975;DHT22;5028;50.974;4.968;2022-11-02T12:00:30;15.80;99.90
9975;DHT22;5028;50.974;4.968;2022-11-02T12:03:05;15.70;99.90
9975;DHT22;5028;50.974;4.968;2022-11-02T12:06:00;15.70;99.90
9975;DHT22;5028;50.974;4.968;2022-11-02T12:08:38;15.80;99.90
9975;DHT22;5028;50.974;4.968;2022-11-02T12:11:39;15.70;99.90
9975;DHT22;5028;50.974;4.968;2022-11-02T12:14:19;15.80;99.90
9975;DHT22;5028;50.974;4.968;2022-11-02T12:17:09;16.00;99.90
9975;DHT22;5028;50.974;4.968;2022-11-02T12:20:02;16.10;99.90
9975;DHT22;5028;50.974;4.968;2022-11-02T12:22:43;16.20;99.90
9975;DHT22;5028;50.974;4.968;2022-11-02T12:28:30;16.20;99.90
9975;DHT22;5028;50.974;4.968;2022-11-02T12:31:13;16.00;99.90
9975;DHT22;5028;50.974;4.968;2022-11-02T12:34:01;15.90;99.90
9975;DHT22;5028;50.974;4.968;2022-11-02T12:36:45;15.90;99.90
9975;DHT22;5028;50.974;4.968;2022-11-02T12:39:52;16.10;99.90
9975;DHT22;5028;50.974;4.968;2022-11-02T12:42:35;16.40;99.90
9975;DHT22;5028;50.974;4.968;2022-11-02T12:45:21;16.60;99.90
9975;DHT22;5028;50.974;4.968;2022-11-02T12:47:58;16.50;99.90
9975;DHT22;5028;50.974;4.968;2022-11-02T12:50:48;16.50;99.90
9975;DHT22;5028;50.974;4.968;2022-11-02T12:53:29;16.50;99.90
9975;DHT22;5028;50.974;4.968;2022-11-02T12:56:11;16.50;99.90
9975;DHT22;5028;50.974;4.968;2022-11-02T12:58:49;16.50;99.90
9975;DHT22;5028;50.974;4.968;2022-11-02T13:01:28;16.50;99.90
9975;DHT22;5028;50.974;4.968;2022-11-02T13:04:08;16.50;99.90
9975;DHT22;5028;50.974;4.968;2022-11-02T13:06:47;16.60;99.90
9975;DHT22;5028;50.974;4.968;2022-11-02T13:09:21;16.70;99.90
9975;DHT22;5028;50.974;4.968;2022-11-02T13:11:59;16.90;99.90
9975;DHT22;5028;50.974;4.968;2022-11-02T13:14:35;16.90;99.90
9975;DHT22;5028;50.974;4.968;2022-11-02T13:17:14;16.70;99.90
9975;DHT22;5028;50.974;4.968;2022-11-02T13:19:48;16.30;99.90
9975;DHT22;5028;50.974;4.968;2022-11-02T13:22:27;16.20;99.90
9975;DHT22;5028;50.974;4.968;2022-11-02T13:25:04;16.30;99.90
9975;DHT22;5028;50.974;4.968;2022-11-02T13:27:52;16.40;99.90
9975;DHT22;5028;50.974;4.968;2022-11-02T13:30:22;16.60;99.90
9975;DHT22;5028;50.974;4.968;2022-11-02T13:33:00;16.80;99.90
9975;DHT22;5028;50.974;4.968;2022-11-02T13:35:32;16.90;99.90
9975;DHT22;5028;50.974;4.968;2022-11-02T13:38:17;16.80;99.90
9975;DHT22;5028;50.974;4.968;2022-11-02T13:41:00;16.70;99.90
9975;DHT22;5028;50.974;4.968;2022-11-02T13:46:58;16.60;99.90
9975;DHT22;5028;50.974;4.968;2022-11-02T13:49:41;16.40;99.90
9975;DHT22;5028;50.974;4.968;2022-11-02T13:52:12;16.40;99.90
9975;DHT22;5028;50.974;4.968;2022-11-02T13:54:57;16.20;99.90
9975;DHT22;5028;50.974;4.968;2022-11-02T13:57:42;16.20;99.90
9975;DHT22;5028;50.974;4.968;2022-11-02T14:00:30;16.00;99.90
9975;DHT22;5028;50.974;4.968;2022-11-02T14:03:06;16.00;99.90
9975;DHT22;5028;50.974;4.968;2022-11-02T14:05:47;15.90;99.90
9975;DHT22;5028;50.974;4.968;2022-11-02T14:08:24;15.90;99.90
9975;DHT22;5028;50.974;4.968;2022-11-02T14:14:06;15.90;99.90
9975;DHT22;5028;50.974;4.968;2022-11-02T14:17:10;15.90;99.90
9975;DHT22;5028;50.974;4.968;2022-11-02T14:19:59;15.90;99.90
9975;DHT22;5028;50.974;4.968;2022-11-02T14:22:37;15.70;99.90
9975;DHT22;5028;50.974;4.968;2022-11-02T14:25:23;15.60;99.90
9975;DHT22;5028;50.974;4.968;2022-11-02T14:28:30;15.70;99.90
9975;DHT22;5028;50.974;4.968;2022-11-02T14:31:22;15.70;99.90
9975;DHT22;5028;50.974;4.968;2022-11-02T14:37:39;15.60;99.90
9975;DHT22;5028;50.974;4.968;2022-11-02T14:40:26;15.50;99.90
9975;DHT22;5028;50.974;4.968;2022-11-02T14:43:12;15.50;99.90
9975;DHT22;5028;50.974;4.968;2022-11-02T14:46:05;15.50;99.90
9975;DHT22;5028;50.974;4.968;2022-11-02T14:48:44;15.50;99.90
9975;DHT22;5028;50.974;4.968;2022-11-02T14:51:19;15.40;99.90
9975;DHT22;5028;50.974;4.968;2022-11-02T14:53:59;15.30;99.90
9975;DHT22;5028;50.974;4.968;2022-11-02T14:56:46;15.30;99.90
9975;DHT22;5028;50.974;4.968;2022-11-02T14:59:29;15.20;99.90
9975;DHT22;5028;50.974;4.968;2022-11-02T15:02:11;15.10;99.90
9975;DHT22;5028;50.974;4.968;2022-11-02T15:04:47;15.10;99.90
9975;DHT22;5028;50.974;4.968;2022-11-02T15:07:30;15.00;99.90
9975;DHT22;5028;50.974;4.968;2022-11-02T15:13:33;15.00;99.90
9975;DHT22;5028;50.974;4.968;2022-11-02T15:16:22;14.90;99.90
9975;DHT22;5028;50.974;4.968;2022-11-02T15:18:50;14.90;99.90
9975;DHT22;5028;50.974;4.968;2022-11-02T15:21:28;14.90;99.90
9975;DHT22;5028;50.974;4.968;2022-11-02T15:24:10;14.80;99.90
9975;DHT22;5028;50.974;4.968;2022-11-02T15:26:50;14.80;99.90
9975;DHT22;5028;50.974;4.968;2022-11-02T15:29:32;14.80;99.90
9975;DHT22;5028;50.974;4.968;2022-11-02T15:32:05;14.70;99.90
9975;DHT22;5028;50.974;4.968;2022-11-02T15:34:50;14.70;99.90
9975;DHT22;5028;50.974;4.968;2022-11-02T15:37:23;14.60;99.90
9975;DHT22;5028;50.974;4.968;2022-11-02T15:40:20;14.60;99.90
9975;DHT22;5028;50.974;4.968;2022-11-02T15:42:59;14.50;99.90
9975;DHT22;5028;50.974;4.968;2022-11-02T15:45:53;14.40;99.90
9975;DHT22;5028;50.974;4.968;2022-11-02T15:48:42;14.40;99.90
9975;DHT22;5028;50.974;4.968;2022-11-02T15:51:23;14.30;99.90
9975;DHT22;5028;50.974;4.968;2022-11-02T15:54:16;14.30;99.90
9975;DHT22;5028;50.974;4.968;2022-11-02T15:57:02;14.20;99.90
9975;DHT22;5028;50.974;4.968;2022-11-02T16:00:08;14.10;99.90
9975;DHT22;5028;50.974;4.968;2022-11-02T16:02:39;14.00;99.90
9975;DHT22;5028;50.974;4.968;2022-11-02T16:05:19;14.00;99.90
9975;DHT22;5028;50.974;4.968;2022-11-02T16:07:48;13.90;99.90
9975;DHT22;5028;50.974;4.968;2022-11-02T16:10:36;13.80;99.90
9975;DHT22;5028;50.974;4.968;2022-11-02T16:13:13;13.70;99.90
9975;DHT22;5028;50.974;4.968;2022-11-02T16:16:03;13.70;99.90
9975;DHT22;5028;50.974;4.968;2022-11-02T16:18:35;13.60;99.90
9975;DHT22;5028;50.974;4.968;2022-11-02T16:21:12;13.60;99.90
9975;DHT22;5028;50.974;4.968;2022-11-02T16:23:46;13.50;99.90
9975;DHT22;5028;50.974;4.968;2022-11-02T16:26:25;13.40;99.90
9975;DHT22;5028;50.974;4.968;2022-11-02T16:28:55;13.30;99.90
9975;DHT22;5028;50.974;4.968;2022-11-02T16:31:32;13.30;99.90
9975;DHT22;5028;50.974;4.968;2022-11-02T16:34:04;13.20;99.90
9975;DHT22;5028;50.974;4.968;2022-11-02T16:36:41;13.10;99.90
9975;DHT22;5028;50.974;4.968;2022-11-02T16:39:15;13.10;99.90
9975;DHT22;5028;50.974;4.968;2022-11-02T16:41:51;13.10;99.90
9975;DHT22;5028;50.974;4.968;2022-11-02T16:44:25;13.00;99.90
9975;DHT22;5028;50.974;4.968;2022-11-02T16:47:16;13.00;99.90
9975;DHT22;5028;50.974;4.968;2022-11-02T16:49:58;12.90;99.90
9975;DHT22;5028;50.974;4.968;2022-11-02T16:52:33;12.90;99.90
9975;DHT22;5028;50.974;4.968;2022-11-02T16:58:25;12.90;99.90
9975;DHT22;5028;50.974;4.968;2022-11-02T17:00:58;12.80;99.90
9975;DHT22;5028;50.974;4.968;2022-11-02T17:03:36;12.80;99.90
9975;DHT22;5028;50.974;4.968;2022-11-02T17:06:08;12.70;99.90
9975;DHT22;5028;50.974;4.968;2022-11-02T17:08:48;12.70;99.90
9975;DHT22;5028;50.974;4.968;2022-11-02T17:11:18;12.60;99.90
9975;DHT22;5028;50.974;4.968;2022-11-02T17:13:54;12.60;99.90
9975;DHT22;5028;50.974;4.968;2022-11-02T17:16:25;12.50;99.90
9975;DHT22;5028;50.974;4.968;2022-11-02T17:19:42;12.50;99.90
9975;DHT22;5028;50.974;4.968;2022-11-02T17:22:15;12.50;99.90
9975;DHT22;5028;50.974;4.968;2022-11-02T17:25:12;12.40;99.90
9975;DHT22;5028;50.974;4.968;2022-11-02T17:27:46;12.30;99.90
9975;DHT22;5028;50.974;4.968;2022-11-02T17:30:42;12.30;99.90
9975;DHT22;5028;50.974;4.968;2022-11-02T17:33:22;12.20;99.90